TimeMST,TemperatureF,Dew PointF,Humidity,Sea Level PressureIn,VisibilityMPH,Wind Direction,Wind SpeedMPH,Gust SpeedMPH,PrecipitationIn,Events,Conditions,WindDirDegrees,DateUTC
12:53 AM,37.9,32.0,79,30.20,10.0,NNW,5.8,-,N/A,,Clear,340,2012-11-06 07:53:00
1:53 AM,36.0,30.9,82,30.19,10.0,NNW,4.6,-,N/A,,Clear,340,2012-11-06 08:53:00
2:53 AM,34.0,30.0,85,30.20,10.0,WNW,4.6,-,N/A,,Clear,300,2012-11-06 09:53:00
3:53 AM,35.1,30.9,85,30.21,10.0,South,4.6,-,N/A,,Clear,190,2012-11-06 10:53:00
4:53 AM,37.0,32.0,82,30.22,10.0,WSW,4.6,-,N/A,,Clear,240,2012-11-06 11:53:00
5:53 AM,34.0,30.9,89,30.22,10.0,SSW,3.5,-,N/A,,Clear,210,2012-11-06 12:53:00
6:53 AM,35.1,32.0,89,30.21,10.0,SSW,15.0,-,N/A,,Partly Cloudy,210,2012-11-06 13:53:00
7:53 AM,36.0,32.0,86,30.23,10.0,SSW,8.1,-,N/A,,Partly Cloudy,200,2012-11-06 14:53:00
8:53 AM,39.0,33.1,79,30.26,10.0,SW,5.8,-,N/A,,Partly Cloudy,220,2012-11-06 15:53:00
9:53 AM,44.1,35.1,71,30.24,10.0,SSW,6.9,-,N/A,,Partly Cloudy,210,2012-11-06 16:53:00
10:53 AM,46.9,35.1,63,30.21,10.0,SSW,11.5,-,N/A,,Partly Cloudy,210,2012-11-06 17:53:00
11:53 AM,51.1,36.0,56,30.18,10.0,SSW,11.5,-,N/A,,Scattered Clouds,210,2012-11-06 18:53:00
12:53 PM,53.1,36.0,52,30.15,10.0,WSW,6.9,-,N/A,,Mostly Cloudy,240,2012-11-06 19:53:00
1:53 PM,57.0,36.0,45,30.12,10.0,SSW,3.5,-,N/A,,Mostly Cloudy,200,2012-11-06 20:53:00
2:53 PM,57.9,36.0,44,30.11,10.0,Calm,Calm,-,N/A,,Scattered Clouds,0,2012-11-06 21:53:00
3:53 PM,57.0,36.0,45,30.09,10.0,South,3.5,-,N/A,,Scattered Clouds,170,2012-11-06 22:53:00
4:53 PM,55.9,37.0,49,30.07,10.0,South,4.6,-,N/A,,Scattered Clouds,170,2012-11-06 23:53:00
5:53 PM,55.0,37.0,51,30.06,10.0,SE,5.8,-,N/A,,Scattered Clouds,140,2012-11-07 00:53:00
6:53 PM,52.0,37.0,57,30.05,10.0,South,4.6,-,N/A,,Clear,180,2012-11-07 01:53:00
7:53 PM,54.0,35.1,49,30.02,10.0,WSW,12.7,-,N/A,,Clear,240,2012-11-07 02:53:00
8:53 PM,55.9,32.0,40,29.99,10.0,WSW,17.3,-,N/A,,Clear,240,2012-11-07 03:53:00
9:53 PM,57.0,30.9,37,29.97,10.0,WSW,15.0,-,N/A,,Clear,250,2012-11-07 04:53:00
10:53 PM,57.0,30.9,37,29.95,10.0,WSW,17.3,-,N/A,,Clear,250,2012-11-07 05:53:00
11:53 PM,55.9,30.0,37,29.93,10.0,SW,11.5,-,N/A,,Clear,230,2012-11-07 06:53:00